createdAt,value
2018-12-13T00:02:11.714Z,91816.97
2018-12-13T00:04:40.974Z,91804.97
2018-12-13T00:07:10.230Z,91785.10
2018-12-13T00:09:40.532Z,91809.11
2018-12-13T00:12:09.785Z,91807.58
2018-12-13T00:14:39.260Z,91805.48
2018-12-13T00:17:08.481Z,91790.32
2018-12-13T00:19:37.793Z,91815.66
2018-12-13T00:22:07.071Z,91808.88
2018-12-13T00:24:36.295Z,91795.80
2018-12-13T00:27:05.784Z,91824.27
2018-12-13T00:29:35.089Z,91825.32
2018-12-13T00:32:04.450Z,91817.75
2018-12-13T00:34:33.647Z,91835.23
2018-12-13T00:37:02.873Z,91817.75
2018-12-13T00:39:32.104Z,91811.22
2018-12-13T00:42:01.440Z,91806.01
2018-12-13T00:44:31.310Z,91812.80
2018-12-13T00:47:00.574Z,91793.71
2018-12-13T00:49:29.914Z,91816.97
2018-12-13T00:51:59.198Z,91780.92
2018-12-13T00:54:28.446Z,91773.09
2018-12-13T00:56:58.685Z,91781.70
2018-12-13T00:59:28.210Z,91759.27
2018-12-13T01:01:57.458Z,91783.01
2018-12-13T01:04:26.706Z,91776.23
2018-12-13T01:06:56.214Z,91746.75
2018-12-13T01:09:25.463Z,91745.44
2018-12-13T01:11:55.772Z,91714.14
2018-12-13T01:14:25.092Z,91700.03
2018-12-13T01:16:54.380Z,91690.12
2018-12-13T01:19:23.693Z,91689.59
2018-12-13T01:21:53.710Z,91685.69
2018-12-13T01:24:23.057Z,91683.34
2018-12-13T01:26:52.295Z,91701.33
2018-12-13T01:29:22.015Z,91683.86
2018-12-13T01:31:51.301Z,91682.30
2018-12-13T01:34:21.359Z,91688.81
2018-12-13T01:36:52.517Z,91696.12
2018-12-13T01:39:21.875Z,91697.68
2018-12-13T01:41:51.158Z,91669.26
2018-12-13T01:44:20.370Z,91670.56
2018-12-13T01:46:50.619Z,91687.77
2018-12-13T01:49:19.945Z,91687.51
2018-12-13T01:51:49.207Z,91666.66
2018-12-13T01:54:18.381Z,91711.28
2018-12-13T01:56:48.507Z,91724.84
2018-12-13T01:59:18.590Z,91718.58
2018-12-13T02:01:49.296Z,91694.81
2018-12-13T02:04:18.649Z,91709.70
2018-12-13T02:06:49.081Z,91689.34
2018-12-13T02:09:18.883Z,91701.07
2018-12-13T02:11:48.775Z,91695.08
2018-12-13T02:14:18.172Z,91707.85
2018-12-13T02:16:47.655Z,91688.03
2018-12-13T02:19:16.625Z,91707.36
2018-12-13T02:21:46.639Z,91718.31
2018-12-13T02:24:15.921Z,91687.77
2018-12-13T02:26:45.158Z,91710.23
2018-12-13T02:29:14.466Z,91715.70
2018-12-13T02:31:44.371Z,91692.20
2018-12-13T02:34:14.299Z,91678.13
2018-12-13T02:36:43.715Z,91676.82
2018-12-13T02:39:13.005Z,91696.12
2018-12-13T02:41:42.579Z,91715.70
2018-12-13T02:44:12.020Z,91700.55
2018-12-13T02:46:42.194Z,91691.16
2018-12-13T02:49:11.425Z,91696.64
2018-12-13T02:51:41.481Z,91688.03
2018-12-13T02:54:11.801Z,91707.07
2018-12-13T02:56:41.643Z,91682.81
2018-12-13T02:59:11.534Z,91701.86
2018-12-13T03:01:40.950Z,91734.48
2018-12-13T03:04:10.464Z,91687.77
2018-12-13T03:06:41.214Z,91699.51
2018-12-13T03:09:10.480Z,91695.86
2018-12-13T03:11:39.931Z,91683.08
2018-12-13T03:14:09.162Z,91663.27
2018-12-13T03:16:38.401Z,91644.23
2018-12-13T03:19:07.635Z,91663.52
2018-12-13T03:21:36.907Z,91649.44
2018-12-13T03:24:06.162Z,91673.43
2018-12-13T03:26:35.425Z,91695.86
2018-12-13T03:29:05.528Z,91702.64
2018-12-13T03:31:34.869Z,91677.60
2018-12-13T03:34:04.377Z,91697.68
2018-12-13T03:36:33.646Z,91690.12
2018-12-13T03:39:03.899Z,91672.13
2018-12-13T03:41:33.444Z,91690.38
2018-12-13T03:44:03.173Z,91669.00
2018-12-13T03:46:32.440Z,91678.65
2018-12-13T03:49:01.689Z,91703.16
2018-12-13T03:51:30.980Z,91690.12
2018-12-13T03:54:00.269Z,91670.56
2018-12-13T03:56:29.818Z,91705.77
2018-12-13T03:58:59.030Z,91715.19
2018-12-13T04:01:28.297Z,91719.88
2018-12-13T04:03:57.582Z,91692.98
2018-12-13T04:06:26.882Z,91711.53
2018-12-13T04:08:56.171Z,91722.48
2018-12-13T04:11:25.417Z,91727.97
2018-12-13T04:13:54.680Z,91704.20
2018-12-13T04:16:23.988Z,91710.75
2018-12-13T04:18:53.465Z,91697.42
2018-12-13T04:21:23.301Z,91732.66
2018-12-13T04:23:52.531Z,91729.53
2018-12-13T04:26:21.781Z,91746.48
2018-12-13T04:28:51.026Z,91721.19
2018-12-13T04:31:21.237Z,91708.37
2018-12-13T04:33:50.476Z,91718.84
2018-12-13T04:36:19.711Z,91709.94
2018-12-13T04:38:50.582Z,91697.68
2018-12-13T04:41:19.783Z,91725.09
2018-12-13T04:43:51.957Z,91727.44
2018-12-13T04:46:21.306Z,91707.07
2018-12-13T04:48:50.514Z,91704.72
2018-12-13T04:51:19.697Z,91689.59
2018-12-13T04:53:48.902Z,91716.75
2018-12-13T04:56:18.231Z,91691.69
2018-12-13T04:58:47.452Z,91687.51
2018-12-13T05:01:17.461Z,91709.41
2018-12-13T05:03:47.211Z,91737.62
2018-12-13T05:06:16.474Z,91715.45
2018-12-13T05:08:45.748Z,91726.40
2018-12-13T05:11:15.509Z,91736.05
2018-12-13T05:13:44.746Z,91739.70
2018-12-13T05:16:14.066Z,91750.66
2018-12-13T05:18:43.968Z,91740.22
2018-12-13T05:21:13.225Z,91752.22
2018-12-13T05:23:44.441Z,91720.92
2018-12-13T05:26:13.694Z,91730.31
2018-12-13T05:28:49.332Z,91766.83
2018-12-13T05:31:18.583Z,91775.18
2018-12-13T05:33:47.880Z,91769.44
2018-12-13T05:36:17.109Z,91768.13
2018-12-13T05:38:46.376Z,91774.14
2018-12-13T05:41:16.291Z,91751.17
2018-12-13T05:43:48.048Z,91760.83
2018-12-13T05:46:17.298Z,91757.70
2018-12-13T05:48:46.519Z,91753.00
2018-12-13T05:51:15.784Z,91762.13
2018-12-13T05:53:45.111Z,91772.57
2018-12-13T05:56:14.385Z,91785.35
2018-12-13T05:58:43.636Z,91786.13
2018-12-13T06:01:12.983Z,91788.48
2018-12-13T06:03:42.222Z,91765.53
2018-12-13T06:06:11.485Z,91751.70
2018-12-13T06:08:40.727Z,91737.88
2018-12-13T06:11:10.137Z,91757.18
2018-12-13T06:13:39.991Z,91760.83
2018-12-13T06:16:09.639Z,91762.66
2018-12-13T06:18:38.920Z,91739.70
2018-12-13T06:21:11.952Z,91776.48
2018-12-13T06:23:41.197Z,91724.05
2018-12-13T06:26:10.705Z,91720.39
2018-12-13T06:28:39.953Z,91705.50
2018-12-13T06:31:09.334Z,91761.61
2018-12-13T06:33:38.522Z,91743.61
2018-12-13T06:36:07.812Z,91748.57
2018-12-13T06:38:37.238Z,91731.87
2018-12-13T06:41:06.618Z,91754.31
2018-12-13T06:43:35.927Z,91716.20
2018-12-13T06:46:06.268Z,91755.09
2018-12-13T06:48:35.495Z,91709.41
2018-12-13T06:51:04.735Z,91723.00
2018-12-13T06:53:35.112Z,91741.27
2018-12-13T06:56:04.381Z,91744.39
2018-12-13T06:58:33.638Z,91717.50
2018-12-13T07:01:02.963Z,91717.27
2018-12-13T07:03:33.076Z,91727.44
2018-12-13T07:06:02.354Z,91688.03
2018-12-13T07:08:38.414Z,91717.23
2018-12-13T07:11:07.635Z,91735.27
2018-12-13T07:13:36.937Z,91692.98
2018-12-13T07:16:06.154Z,91719.09
2018-12-13T07:18:35.764Z,91743.34
2018-12-13T07:21:04.994Z,91718.80
2018-12-13T07:23:34.287Z,91741.00
2018-12-13T07:26:03.606Z,91707.33
2018-12-13T07:28:32.893Z,91673.95
2018-12-13T07:31:02.285Z,91703.41
2018-12-13T07:33:32.114Z,91732.13
2018-12-13T07:36:01.400Z,91707.59
2018-12-13T07:38:30.651Z,91752.48
2018-12-13T07:40:59.864Z,91755.09
2018-12-13T07:43:29.128Z,91716.20
2018-12-13T07:45:58.361Z,91709.67
2018-12-13T07:48:27.587Z,91721.41
2018-12-13T07:50:56.834Z,91713.06
2018-12-13T07:53:26.076Z,91734.22
2018-12-13T07:55:55.310Z,91701.06
2018-12-13T07:58:24.659Z,91732.39
2018-12-13T08:00:54.195Z,91732.91
2018-12-13T08:03:23.469Z,91750.39
2018-12-13T08:05:52.731Z,91744.13
2018-12-13T08:08:22.873Z,91781.18
2018-12-13T08:10:53.121Z,91791.35
2018-12-13T08:13:22.487Z,91785.88
2018-12-13T08:15:51.711Z,91759.52
2018-12-13T08:18:20.902Z,91750.65
2018-12-13T08:20:50.182Z,91773.88
2018-12-13T08:23:19.431Z,91768.39
2018-12-13T08:25:49.268Z,91774.12
2018-12-13T08:28:18.443Z,91734.22
2018-12-13T08:30:48.366Z,91713.06
2018-12-13T08:33:17.718Z,91732.39
2018-12-13T08:35:47.176Z,91721.41
2018-12-13T08:38:16.577Z,91723.00
2018-12-13T08:40:45.978Z,91756.90
2018-12-13T08:43:15.754Z,91791.61
2018-12-13T08:45:45.004Z,91786.66
2018-12-13T08:48:14.226Z,91785.88
2018-12-13T08:50:44.470Z,91796.31
2018-12-13T08:53:13.771Z,91794.48
2018-12-13T08:55:43.527Z,91801.53
2018-12-13T08:58:12.832Z,91849.32
2018-12-13T09:00:42.145Z,91883.52
2018-12-13T09:03:11.707Z,91873.34
2018-12-13T09:05:41.196Z,91856.62
2018-12-13T09:08:10.423Z,91870.20
2018-12-13T09:10:39.639Z,91872.30
2018-12-13T09:13:08.878Z,91905.19
2018-12-13T09:15:38.347Z,91916.66
2018-12-13T09:18:07.589Z,91937.30
2018-12-13T09:20:37.432Z,91932.87
2018-12-13T09:23:07.616Z,91943.83
2018-12-13T09:25:38.846Z,91957.18
2018-12-13T09:28:08.219Z,91948.30
2018-12-13T09:30:37.450Z,91933.65
2018-12-13T09:33:08.872Z,91960.31
2018-12-13T09:35:38.086Z,91950.13
2018-12-13T09:38:08.951Z,91969.98
2018-12-13T09:40:38.233Z,91979.12
2018-12-13T09:43:07.621Z,91991.66
2018-12-13T09:45:37.631Z,92006.81
2018-12-13T09:48:07.155Z,92035.04
2018-12-13T09:50:37.477Z,92037.66
2018-12-13T09:53:06.729Z,92005.78
2018-12-13T09:55:36.031Z,92038.95
2018-12-13T09:58:05.488Z,92015.44
2018-12-13T10:00:38.803Z,92029.55
2018-12-13T10:03:08.016Z,92044.70
2018-12-13T10:05:37.293Z,92086.04
2018-12-13T10:08:06.557Z,92108.25
2018-12-13T10:10:35.831Z,92113.48
2018-12-13T10:13:05.005Z,92142.77
2018-12-13T10:15:34.320Z,92169.48
2018-12-13T10:18:03.698Z,92209.76
2018-12-13T10:20:32.962Z,92244.56
2018-12-13T10:23:02.189Z,92239.84
2018-12-13T10:25:31.446Z,92233.05
2018-12-13T10:28:01.101Z,92263.92
2018-12-13T10:30:30.301Z,92267.32
2018-12-13T10:32:59.704Z,92257.12
2018-12-13T10:35:30.251Z,92245.60
2018-12-13T10:38:00.326Z,92277.03
2018-12-13T10:40:29.555Z,92249.79
2018-12-13T10:42:58.798Z,92212.36
2018-12-13T10:45:28.615Z,92256.06
2018-12-13T10:47:57.846Z,92257.12
2018-12-13T10:50:27.217Z,92248.48
2018-12-13T10:52:57.522Z,92254.49
2018-12-13T10:55:26.838Z,92253.70
2018-12-13T10:57:56.146Z,92262.34
2018-12-13T11:00:30.692Z,92245.34
2018-12-13T11:03:26.252Z,92242.72
2018-12-13T11:05:56.529Z,92198.73
2018-12-13T11:08:25.802Z,92221.53
2018-12-13T11:10:55.038Z,92262.34
2018-12-13T11:13:24.274Z,92285.67
2018-12-13T11:15:53.741Z,92275.73
2018-12-13T11:18:23.858Z,92295.09
2018-12-13T11:20:53.817Z,92300.06
2018-12-13T11:23:24.212Z,92270.20
2018-12-13T11:25:53.417Z,92253.70
2018-12-13T11:28:32.850Z,92229.90
2018-12-13T11:31:02.718Z,92241.67
2018-12-13T11:33:31.964Z,92216.55
2018-12-13T11:36:01.236Z,92191.45
2018-12-13T11:38:30.569Z,92219.95
2018-12-13T11:40:59.860Z,92212.89
2018-12-13T11:43:29.277Z,92189.35
2018-12-13T11:45:58.600Z,92155.58
2018-12-13T11:48:28.026Z,92145.11
2018-12-13T11:50:57.243Z,92106.42
2018-12-13T11:53:27.304Z,92091.52
2018-12-13T11:56:59.701Z,92051.50
2018-12-13T11:59:29.537Z,92058.58
2018-12-13T12:02:00.296Z,92047.31
2018-12-13T12:04:29.650Z,92035.55
2018-12-13T12:06:58.863Z,91988.78
2018-12-13T12:09:28.098Z,91958.75
2018-12-13T12:11:57.366Z,91920.58
2018-12-13T12:14:27.050Z,91874.11
2018-12-13T12:16:56.306Z,91868.63
2018-12-13T12:19:25.551Z,91893.95
2018-12-13T12:21:55.874Z,91891.34
2018-12-13T12:24:25.109Z,91911.96
2018-12-13T12:26:54.391Z,91899.95
2018-12-13T12:29:23.668Z,91883.25
2018-12-13T12:31:53.117Z,91917.71
2018-12-13T12:34:23.001Z,91898.66
2018-12-13T12:36:52.320Z,91914.31
2018-12-13T12:39:21.613Z,91888.99
2018-12-13T12:41:51.749Z,91885.33
2018-12-13T12:44:21.513Z,91858.97
2018-12-13T12:46:50.789Z,91901.53
2018-12-13T12:49:21.027Z,91887.94
2018-12-13T12:51:50.277Z,91898.39
2018-12-13T12:54:19.513Z,91884.02
2018-12-13T12:56:49.920Z,91877.50
2018-12-13T12:59:19.193Z,91857.41
2018-12-13T13:01:48.676Z,91866.02
2018-12-13T13:04:17.908Z,91828.92
2018-12-13T13:06:47.348Z,91826.84
2018-12-13T13:09:17.718Z,91802.83
2018-12-13T13:11:46.982Z,91810.14
2018-12-13T13:14:16.287Z,91828.41
2018-12-13T13:16:45.538Z,91841.45
2018-12-13T13:19:15.082Z,91815.61
2018-12-13T13:21:44.318Z,91825.53
2018-12-13T13:24:13.569Z,91798.13
2018-12-13T13:26:42.810Z,91781.17
2018-12-13T13:29:13.667Z,91780.65
2018-12-13T13:31:42.941Z,91829.70
2018-12-13T13:34:12.222Z,91801.78
2018-12-13T13:36:42.331Z,91823.97
2018-12-13T13:39:11.582Z,91784.83
2018-12-13T13:41:40.824Z,91787.16
2018-12-13T13:44:11.250Z,91794.73
2018-12-13T13:46:40.519Z,91777.78
2018-12-13T13:49:09.773Z,91776.21
2018-12-13T13:51:39.029Z,91760.82
2018-12-13T13:54:08.519Z,91763.95
2018-12-13T13:56:38.218Z,91762.13
2018-12-13T13:59:07.465Z,91784.56
2018-12-13T14:01:36.722Z,91776.47
2018-12-13T14:04:06.042Z,91756.38
2018-12-13T14:06:35.692Z,91738.87
2018-12-13T14:09:07.502Z,91762.91
2018-12-13T14:11:37.554Z,91729.23
2018-12-13T14:14:07.444Z,91702.11
2018-12-13T14:16:36.797Z,91712.28
2018-12-13T14:19:06.036Z,91726.09
2018-12-13T14:21:35.294Z,91738.36
2018-12-13T14:24:05.559Z,91738.36
2018-12-13T14:26:35.431Z,91732.88
2018-12-13T14:29:04.892Z,91735.75
2018-12-13T14:31:34.682Z,91726.88
2018-12-13T14:34:04.315Z,91706.54
2018-12-13T14:36:35.581Z,91696.62
2018-12-13T14:39:07.543Z,91726.36
2018-12-13T14:41:36.812Z,91706.28
2018-12-13T14:44:06.223Z,91710.45
2018-12-13T14:46:35.667Z,91686.72
2018-12-13T14:49:05.302Z,91703.14
2018-12-13T14:51:34.751Z,91685.42
2018-12-13T14:54:04.092Z,91712.53
2018-12-13T14:56:35.686Z,91712.02
2018-12-13T14:59:05.059Z,91693.77
2018-12-13T15:01:34.577Z,91712.80
2018-12-13T15:04:04.141Z,91712.80
2018-12-13T15:06:33.386Z,91698.45
2018-12-13T15:09:02.937Z,91692.20
2018-12-13T15:11:33.226Z,91683.33
2018-12-13T15:14:02.752Z,91733.66
2018-12-13T15:16:32.112Z,91730.27
2018-12-13T15:19:01.363Z,91714.62
2018-12-13T15:21:30.753Z,91662.73
2018-12-13T15:24:00.004Z,91664.30
2018-12-13T15:26:29.243Z,91661.42
2018-12-13T15:28:58.511Z,91668.47
2018-12-13T15:31:28.274Z,91679.16
2018-12-13T15:33:59.450Z,91697.41
2018-12-13T15:36:28.825Z,91684.11
2018-12-13T15:38:58.051Z,91674.98
2018-12-13T15:41:27.346Z,91671.33
2018-12-13T15:43:59.422Z,91678.37
2018-12-13T15:46:28.721Z,91669.25
2018-12-13T15:48:58.171Z,91690.63
2018-12-13T15:51:28.014Z,91695.84
2018-12-13T15:53:58.215Z,91646.83
2018-12-13T15:56:27.587Z,91640.83
2018-12-13T15:58:57.176Z,91657.52
2018-12-13T16:01:26.938Z,91664.03
2018-12-13T16:03:56.209Z,91668.20
2018-12-13T16:06:27.587Z,91655.44
2018-12-13T16:08:57.055Z,91656.73
2018-12-13T16:11:27.030Z,91659.60
2018-12-13T16:13:56.497Z,91631.94
2018-12-13T16:16:25.747Z,91635.59
2018-12-13T16:18:55.002Z,91620.21
2018-12-13T16:21:24.704Z,91647.87
2018-12-13T16:23:55.643Z,91642.92
2018-12-13T16:26:24.937Z,91630.38
2018-12-13T16:28:54.484Z,91661.95
2018-12-13T16:31:25.000Z,91648.39
2018-12-13T16:33:55.015Z,91605.62
2018-12-13T16:36:24.307Z,91663.25
2018-12-13T16:38:54.425Z,91651.52
2018-12-13T16:41:23.972Z,91628.81
2018-12-13T16:43:53.343Z,91639.27
2018-12-13T16:46:22.645Z,91631.68
2018-12-13T16:48:51.900Z,91662.21
2018-12-13T16:51:21.146Z,91641.88
2018-12-13T16:53:50.630Z,91661.42
2018-12-13T16:56:20.104Z,91665.08
2018-12-13T16:58:50.449Z,91652.56
2018-12-13T17:01:19.726Z,91632.20
2018-12-13T17:03:49.018Z,91622.30
2018-12-13T17:06:19.242Z,91603.27
2018-12-13T17:08:48.471Z,91637.41
2018-12-13T17:11:17.723Z,91614.48
2018-12-13T17:13:46.976Z,91622.30
2018-12-13T17:16:16.236Z,91594.93
2018-12-13T17:18:45.543Z,91613.17
2018-12-13T17:21:15.940Z,91613.70
2018-12-13T17:23:45.464Z,91604.57
2018-12-13T17:26:14.881Z,91625.69
2018-12-13T17:28:44.120Z,91604.05
2018-12-13T17:31:14.221Z,91636.11
2018-12-13T17:33:43.445Z,91610.05
2018-12-13T17:36:12.822Z,91602.75
2018-12-13T17:38:42.069Z,91609.00
2018-12-13T17:41:12.517Z,91606.14
2018-12-13T17:43:41.772Z,91579.81
2018-12-13T17:46:12.118Z,91597.80
2018-12-13T17:48:54.207Z,91606.92
2018-12-13T17:51:24.344Z,91615.78
2018-12-13T17:53:54.234Z,91607.95
2018-12-13T17:56:23.816Z,91600.14
2018-12-13T17:58:54.905Z,91601.70
2018-12-13T18:01:24.156Z,91583.98
2018-12-13T18:03:53.849Z,91589.98
2018-12-13T18:06:23.086Z,91592.06
2018-12-13T18:08:53.059Z,91564.44
2018-12-13T18:11:22.619Z,91570.70
2018-12-13T18:13:51.908Z,91576.95
2018-12-13T18:16:21.159Z,91587.89
2018-12-13T18:18:50.435Z,91576.95
2018-12-13T18:21:19.716Z,91569.39
2018-12-13T18:23:50.493Z,91583.73
2018-12-13T18:26:19.774Z,91599.36
2018-12-13T18:28:49.746Z,91606.14
2018-12-13T18:31:19.072Z,91600.41
2018-12-13T18:33:48.339Z,91588.94
2018-12-13T18:36:17.575Z,91586.33
2018-12-13T18:38:46.964Z,91577.21
2018-12-13T18:41:16.150Z,91594.41
2018-12-13T18:43:45.974Z,91586.85
2018-12-13T18:46:15.671Z,91576.17
2018-12-13T18:48:46.017Z,91557.41
2018-12-13T18:51:15.613Z,91551.16
2018-12-13T18:53:44.948Z,91534.45
2018-12-13T18:56:14.555Z,91520.91
2018-12-13T18:58:44.820Z,91545.42
2018-12-13T19:01:14.019Z,91532.63
2018-12-13T19:03:44.237Z,91447.13
2018-12-13T19:06:13.551Z,91525.34
2018-12-13T19:08:43.209Z,91521.69
2018-12-13T19:11:13.775Z,91532.63
2018-12-13T19:13:43.158Z,91529.53
2018-12-13T19:16:13.097Z,91529.25
2018-12-13T19:18:44.146Z,91546.47
2018-12-13T19:21:14.461Z,91532.92
2018-12-13T19:23:44.484Z,91548.55
2018-12-13T19:26:14.736Z,91545.95
2018-12-13T19:28:45.694Z,91553.50
2018-12-13T19:31:15.000Z,91559.75
2018-12-13T19:33:44.269Z,91567.05
2018-12-13T19:36:13.511Z,91585.55
2018-12-13T19:38:42.804Z,91556.63
2018-12-13T19:41:12.224Z,91524.03
2018-12-13T19:43:41.631Z,91580.08
2018-12-13T19:46:10.950Z,91593.11
2018-12-13T19:48:40.443Z,91583.73
2018-12-13T19:51:09.860Z,91565.75
2018-12-13T19:53:40.133Z,91591.54
2018-12-13T19:56:09.416Z,91556.63
2018-12-13T19:58:38.641Z,91517.00
2018-12-13T20:01:07.897Z,91518.05
2018-12-13T20:03:37.856Z,91571.22
2018-12-13T20:06:07.141Z,91594.67
2018-12-13T20:08:36.414Z,91561.84
2018-12-13T20:11:05.698Z,91564.19
2018-12-13T20:13:35.015Z,91583.20
2018-12-13T20:16:04.366Z,91558.19
2018-12-13T20:18:34.527Z,91559.75
2018-12-13T20:21:03.940Z,91537.35
2018-12-13T20:23:33.199Z,91524.81
2018-12-13T20:26:02.701Z,91542.30
2018-12-13T20:28:31.954Z,91555.84
2018-12-13T20:31:01.270Z,91570.95
2018-12-13T20:33:32.685Z,91570.70
2018-12-13T20:36:02.192Z,91570.70
2018-12-13T20:38:31.464Z,91564.44
2018-12-13T20:41:01.069Z,91555.84
2018-12-13T20:43:30.536Z,91563.92
2018-12-13T20:45:59.822Z,91566.53
2018-12-13T20:48:29.372Z,91550.11
2018-12-13T20:50:59.556Z,91550.90
2018-12-13T20:53:28.835Z,91545.69
2018-12-13T20:55:58.225Z,91545.16
2018-12-13T20:58:27.603Z,91538.36
2018-12-13T21:00:56.850Z,91552.72
2018-12-13T21:03:26.118Z,91550.11
2018-12-13T21:05:55.464Z,91520.65
2018-12-13T21:08:24.696Z,91506.58
2018-12-13T21:10:54.070Z,91521.69
2018-12-13T21:13:23.691Z,91558.45
2018-12-13T21:15:53.195Z,91545.42
2018-12-13T21:18:23.254Z,91528.98
2018-12-13T21:20:53.547Z,91514.66
2018-12-13T21:23:22.819Z,91500.34
2018-12-13T21:25:52.117Z,91514.66
2018-12-13T21:28:21.375Z,91531.59
2018-12-13T21:30:51.638Z,91559.75
2018-12-13T21:33:22.031Z,91537.84
2018-12-13T21:35:51.319Z,91526.37
2018-12-13T21:38:21.775Z,91525.86
2018-12-13T21:40:51.776Z,91546.73
2018-12-13T21:43:21.060Z,91546.47
2018-12-13T21:45:50.698Z,91510.48
2018-12-13T21:48:19.984Z,91502.16
2018-12-13T21:50:49.214Z,91482.10
2018-12-13T21:53:19.005Z,91468.82
2018-12-13T21:55:48.279Z,91471.42
2018-12-13T21:58:17.545Z,91487.83
2018-12-13T22:00:47.589Z,91490.70
2018-12-13T22:03:17.515Z,91492.00
2018-12-13T22:05:47.671Z,91504.77
2018-12-13T22:08:17.559Z,91514.66
2018-12-13T22:10:47.605Z,91500.07
2018-12-13T22:13:17.175Z,91464.92
2018-12-13T22:15:47.082Z,91467.52
2018-12-13T22:18:17.122Z,91476.89
2018-12-13T22:20:48.709Z,91432.63
2018-12-13T22:23:17.906Z,91469.34
2018-12-13T22:25:50.052Z,91451.12
2018-12-13T22:28:20.081Z,91435.23
2018-12-13T22:30:49.289Z,91467.00
2018-12-13T22:33:18.529Z,91469.34
2018-12-13T22:35:48.460Z,91446.66
2018-12-13T22:38:18.685Z,91459.97
2018-12-13T22:40:48.649Z,91467.00
2018-12-13T22:43:20.648Z,91488.88
2018-12-13T22:45:50.130Z,91489.66
2018-12-13T22:48:25.796Z,91472.20
2018-12-13T22:50:55.067Z,91474.30
2018-12-13T22:53:24.282Z,91474.03
2018-12-13T22:55:54.245Z,91503.45
2018-12-13T22:58:23.683Z,91500.07
2018-12-13T23:00:53.946Z,91472.20
2018-12-13T23:03:23.423Z,91482.36
2018-12-13T23:05:53.279Z,91476.38
2018-12-13T23:08:22.659Z,91471.16
2018-12-13T23:10:51.968Z,91477.67
2018-12-13T23:13:21.272Z,91450.34
2018-12-13T23:15:50.505Z,91465.17
2018-12-13T23:18:19.817Z,91456.06
2018-12-13T23:20:49.371Z,91450.08
2018-12-13T23:23:18.614Z,91443.05
2018-12-13T23:25:47.862Z,91457.11
2018-12-13T23:28:17.932Z,91435.50
2018-12-13T23:30:47.180Z,91455.80
2018-12-13T23:33:16.429Z,91467.78
2018-12-13T23:35:47.037Z,91479.77
2018-12-13T23:38:16.349Z,91468.56
2018-12-13T23:40:45.587Z,91484.45
2018-12-13T23:43:15.889Z,91469.08
2018-12-13T23:45:45.081Z,91437.58
2018-12-13T23:48:14.366Z,91446.17
2018-12-13T23:50:44.595Z,91430.52
2018-12-13T23:53:14.403Z,91423.23
2018-12-13T23:55:43.693Z,91444.09
2018-12-13T23:58:13.026Z,91410.48
